sensor_id;sensor_type;location;lat;lon;timestamp;pressure;altitude;pressure_sealevel;temperature;humidity
55679;BME280;41573;51.446;-2.018;2023-03-15T11:22:20;95804.84;;;6.07;100.00
55679;BME280;41573;51.446;-2.018;2023-03-15T11:24:50;95806.66;;;6.21;100.00
55679;BME280;41573;51.446;-2.018;2023-03-15T11:27:22;95822.81;;;6.26;100.00
55679;BME280;41573;51.446;-2.018;2023-03-15T11:29:51;95824.06;;;6.30;100.00
55679;BME280;41573;51.446;-2.018;2023-03-15T11:32:22;95827.09;;;6.27;100.00
55679;BME280;41573;51.446;-2.018;2023-03-15T11:38:17;95830.72;;;6.26;100.00
55679;BME280;41573;51.446;-2.018;2023-03-15T11:40:56;95839.19;;;6.36;100.00
55679;BME280;41573;51.446;-2.018;2023-03-15T11:55:32;95864.53;;;6.46;100.00
55679;BME280;41573;51.446;-2.018;2023-03-15T11:58:34;95853.78;;;6.47;100.00
55679;BME280;41573;51.446;-2.018;2023-03-15T12:01:23;95863.44;;;6.40;100.00
55679;BME280;41573;51.446;-2.018;2023-03-15T12:18:55;95721.44;;;6.64;100.00
55679;BME280;41573;51.446;-2.018;2023-03-15T12:21:54;95698.47;;;6.64;100.00
55679;BME280;41573;51.446;-2.018;2023-03-15T12:24:36;95688.78;;;6.71;100.00
55679;BME280;41573;51.446;-2.018;2023-03-15T12:27:05;95671.59;;;6.82;100.00
55679;BME280;41573;51.446;-2.018;2023-03-15T12:29:43;95661.75;;;6.76;100.00
55679;BME280;41573;51.446;-2.018;2023-03-15T12:32:22;95648.88;;;6.88;100.00
55679;BME280;41573;51.446;-2.018;2023-03-15T12:34:57;95660.56;;;6.79;100.00
55679;BME280;41573;51.446;-2.018;2023-03-15T12:37:38;95618.56;;;6.90;100.00
55679;BME280;41573;51.446;-2.018;2023-03-15T12:48:20;95562.63;;;6.87;100.00
55679;BME280;41573;51.446;-2.018;2023-03-15T12:50:52;95527.19;;;6.81;100.00
55679;BME280;41573;51.446;-2.018;2023-03-15T12:53:35;95501.34;;;6.77;100.00
55679;BME280;41573;51.446;-2.018;2023-03-15T12:59:50;95462.88;;;6.74;100.00
55679;BME280;41573;51.446;-2.018;2023-03-15T13:01:57;95415.94;;;6.83;100.00
55679;BME280;41573;51.446;-2.018;2023-03-15T13:04:26;95391.38;;;6.89;100.00
55679;BME280;41573;51.446;-2.018;2023-03-15T13:07:16;95371.06;;;6.96;100.00
55679;BME280;41573;51.446;-2.018;2023-03-15T13:10:11;95349.91;;;6.96;100.00
55679;BME280;41573;51.446;-2.018;2023-03-15T13:12:49;95326.72;;;6.98;100.00
55679;BME280;41573;51.446;-2.018;2023-03-15T13:15:27;95310.50;;;7.08;100.00
55679;BME280;41573;51.446;-2.018;2023-03-15T13:17:58;95308.03;;;7.06;100.00
55679;BME280;41573;51.446;-2.018;2023-03-15T13:28:38;95297.50;;;7.27;100.00
55679;BME280;41573;51.446;-2.018;2023-03-15T13:31:25;95296.06;;;7.24;100.00
55679;BME280;41573;51.446;-2.018;2023-03-15T13:34:30;95280.00;;;7.32;100.00
55679;BME280;41573;51.446;-2.018;2023-03-15T13:37:01;95302.78;;;7.27;100.00
55679;BME280;41573;51.446;-2.018;2023-03-15T13:39:31;95307.22;;;7.06;100.00
55679;BME280;41573;51.446;-2.018;2023-03-15T13:42:05;95273.66;;;7.13;100.00
55679;BME280;41573;51.446;-2.018;2023-03-15T13:44:32;95251.06;;;7.11;100.00
55679;BME280;41573;51.446;-2.018;2023-03-15T13:46:58;95245.16;;;7.08;100.00
55679;BME280;41573;51.446;-2.018;2023-03-15T13:52:55;95192.50;;;7.14;100.00
55679;BME280;41573;51.446;-2.018;2023-03-15T13:55:49;95176.19;;;7.03;100.00
55679;BME280;41573;51.446;-2.018;2023-03-15T13:58:18;95153.84;;;6.99;100.00
55679;BME280;41573;51.446;-2.018;2023-03-15T14:00:45;95154.66;;;7.00;100.00
55679;BME280;41573;51.446;-2.018;2023-03-15T14:03:13;95136.31;;;7.12;100.00
55679;BME280;41573;51.446;-2.018;2023-03-15T14:05:53;95116.38;;;7.16;100.00
55679;BME280;41573;51.446;-2.018;2023-03-15T14:08:23;95081.38;;;7.20;100.00
55679;BME280;41573;51.446;-2.018;2023-03-15T14:11:53;95051.91;;;7.17;100.00
